Time;durP1;ratioP1;P1;durP2;ratioP2;P2;SDS_P1;SDS_P2;PMS_P1;PMS_P2;Temp;Humidity;BMP_temperature;BMP_pressure;BME280_temperature;BME280_humidity;BME280_pressure;Samples;Min_cycle;Max_cycle;Signal;HPM_P1;HPM_P2
2021/01/24 00:00:51;;;;;;;7.37;6.13;;;4.50;99.90;;;;;;5128776;27;20182;-55
2021/01/24 00:03:17;;;;;;;5.50;5.00;;;4.50;99.90;;;;;;5123409;27;20467;-53
2021/01/24 00:05:46;;;;;;;7.27;6.20;;;4.50;99.90;;;;;;5113783;28;20446;-54
2021/01/24 00:08:12;;;;;;;8.10;6.27;;;4.50;99.90;;;;;;5125190;27;20484;-53
2021/01/24 00:10:39;;;;;;;7.27;5.67;;;4.50;99.90;;;;;;5114001;28;20822;-52
2021/01/24 00:13:05;;;;;;;8.57;6.20;;;4.60;99.90;;;;;;5117741;27;20462;-55
2021/01/24 00:15:30;;;;;;;7.20;6.50;;;4.60;99.90;;;;;;5134054;27;20475;-54
2021/01/24 00:17:56;;;;;;;8.10;6.70;;;4.60;99.90;;;;;;5134310;27;20512;-53
2021/01/24 00:20:22;;;;;;;7.57;5.47;;;4.70;99.90;;;;;;5115197;27;20219;-53
2021/01/24 00:22:47;;;;;;;6.83;5.83;;;4.70;99.90;;;;;;5113129;28;20280;-54
2021/01/24 00:25:13;;;;;;;7.53;6.00;;;4.70;99.90;;;;;;5096934;27;20429;-52
2021/01/24 00:27:39;;;;;;;7.47;6.00;;;4.80;99.90;;;;;;5119557;27;20546;-54
2021/01/24 00:30:07;;;;;;;6.70;5.47;;;4.80;99.90;;;;;;5113255;28;20189;-55
2021/01/24 00:32:33;;;;;;;7.00;5.10;;;4.80;99.90;;;;;;5117378;27;20212;-52
2021/01/24 00:34:59;;;;;;;5.60;4.57;;;4.80;99.90;;;;;;5115640;27;20782;-53
2021/01/24 00:37:25;;;;;;;6.27;5.23;;;4.70;99.90;;;;;;5132187;27;20480;-54
2021/01/24 00:39:50;;;;;;;6.57;4.73;;;4.70;99.90;;;;;;5113814;28;20192;-54
2021/01/24 00:42:16;;;;;;;5.73;4.67;;;4.70;99.90;;;;;;5121735;27;20185;-53
2021/01/24 00:44:42;;;;;;;6.73;5.20;;;4.60;99.90;;;;;;5133916;27;20256;-54
2021/01/24 00:47:08;;;;;;;4.80;4.30;;;4.70;99.90;;;;;;5117868;27;20189;-54
2021/01/24 00:49:33;;;;;;;5.60;4.33;;;4.80;99.90;;;;;;5119893;27;20186;-54
2021/01/24 00:51:59;;;;;;;5.27;4.30;;;4.90;99.90;;;;;;5133344;27;20951;-54
2021/01/24 00:54:25;;;;;;;5.30;4.80;;;4.70;99.90;;;;;;5133632;27;20200;-53
2021/01/24 00:56:50;;;;;;;5.53;4.37;;;4.80;99.90;;;;;;5124970;27;20213;-55
2021/01/24 00:59:16;;;;;;;5.67;4.17;;;4.80;99.90;;;;;;5129269;27;20188;-54
2021/01/24 01:01:41;;;;;;;5.10;4.30;;;4.80;99.90;;;;;;5133683;27;20189;-55
2021/01/24 01:04:07;;;;;;;6.40;5.20;;;4.80;99.90;;;;;;5133399;27;20653;-53
2021/01/24 01:06:33;;;;;;;6.23;4.50;;;4.80;99.90;;;;;;5132813;27;20640;-55
2021/01/24 01:08:59;;;;;;;6.07;4.43;;;4.80;99.90;;;;;;5133366;27;20259;-53
2021/01/24 01:11:24;;;;;;;5.17;4.67;;;4.80;99.90;;;;;;5133069;27;20474;-53
2021/01/24 01:13:50;;;;;;;6.00;5.00;;;4.80;99.90;;;;;;5125461;27;20186;-53
2021/01/24 01:16:15;;;;;;;5.33;4.80;;;4.80;99.90;;;;;;5121642;27;20209;-53
2021/01/24 01:18:41;;;;;;;4.87;3.93;;;4.70;99.90;;;;;;5121486;27;20182;-54
2021/01/24 01:21:07;;;;;;;5.33;4.83;;;4.70;99.90;;;;;;5121373;27;20230;-54
2021/01/24 01:23:32;;;;;;;6.43;4.97;;;4.70;99.90;;;;;;5133324;27;20172;-53
2021/01/24 01:25:58;;;;;;;4.67;4.10;;;4.80;99.90;;;;;;5133493;27;20177;-54
2021/01/24 01:28:23;;;;;;;5.53;4.93;;;4.80;99.90;;;;;;5125619;28;20196;-53
2021/01/24 01:30:49;;;;;;;4.93;4.43;;;4.80;99.90;;;;;;5112523;28;20635;-54
2021/01/24 01:33:16;;;;;;;6.57;5.20;;;4.70;99.90;;;;;;5111038;28;20233;-53
2021/01/24 01:35:42;;;;;;;5.63;4.90;;;4.80;99.90;;;;;;5129453;28;20229;-54
2021/01/24 01:38:07;;;;;;;5.70;5.00;;;4.70;99.90;;;;;;5131889;28;20431;-53
2021/01/24 01:40:33;;;;;;;5.30;4.80;;;4.70;99.90;;;;;;5123252;28;20242;-53
2021/01/24 01:42:59;;;;;;;5.60;5.00;;;4.70;99.90;;;;;;5113695;28;20186;-53
2021/01/24 01:45:25;;;;;;;5.20;4.70;;;4.70;99.90;;;;;;5112411;28;20174;-52
2021/01/24 01:47:52;;;;;;;5.60;4.90;;;4.70;99.90;;;;;;5112223;28;20897;-52
2021/01/24 01:50:19;;;;;;;6.97;5.10;;;4.80;99.90;;;;;;5119369;28;20635;-53
2021/01/24 01:52:44;;;;;;;6.33;4.83;;;4.70;99.90;;;;;;5117288;28;20814;-52
2021/01/24 01:55:11;;;;;;;6.50;5.23;;;4.70;99.90;;;;;;5133044;28;20505;-54
2021/01/24 01:57:36;;;;;;;7.70;6.07;;;4.60;99.90;;;;;;5132909;27;20236;-53
2021/01/24 02:00:05;;;;;;;7.03;5.80;;;4.60;99.90;;;;;;5126465;28;20443;-54
2021/01/24 02:02:54;;;;;;;6.63;5.93;;;4.60;99.90;;;;;;5112318;28;20508;-53
2021/01/24 02:05:32;;;;;;;7.50;5.73;;;4.50;99.90;;;;;;5131809;28;20434;-53
2021/01/24 02:08:12;;;;;;;8.03;5.30;;;4.50;99.90;;;;;;5120293;27;20922;-52
2021/01/24 02:10:57;;;;;;;6.73;5.87;;;4.40;99.90;;;;;;5113927;28;20435;-53
2021/01/24 02:13:26;;;;;;;8.63;5.70;;;4.40;99.90;;;;;;5119220;27;20853;-54
2021/01/24 02:15:53;;;;;;;6.53;5.43;;;4.30;99.90;;;;;;5112050;28;20790;-53
2021/01/24 02:18:20;;;;;;;7.90;5.67;;;4.30;99.90;;;;;;5119261;27;20462;-53
2021/01/24 02:20:57;;;;;;;6.93;5.83;;;4.30;99.90;;;;;;5136546;27;20429;-54
2021/01/24 02:23:26;;;;;;;7.73;5.93;;;4.50;99.90;;;;;;5136624;27;20474;-53
2021/01/24 02:25:57;;;;;;;7.43;6.00;;;4.50;99.90;;;;;;5120586;27;20442;-53
2021/01/24 02:28:48;;;;;;;7.43;6.20;;;4.50;99.90;;;;;;5124294;27;20801;-53
2021/01/24 02:31:14;;;;;;;7.97;5.80;;;4.40;99.90;;;;;;5121568;27;20931;-53
2021/01/24 02:33:40;;;;;;;8.00;6.60;;;5.20;99.90;;;;;;5118252;27;20440;-52
2021/01/24 02:36:09;;;;;;;8.03;5.93;;;4.30;99.90;;;;;;5128674;27;20464;-52
2021/01/24 02:38:36;;;;;;;9.50;6.57;;;4.30;99.90;;;;;;5119123;27;20865;-52
2021/01/24 02:41:02;;;;;;;9.87;5.90;;;4.30;99.90;;;;;;5115568;28;20425;-53
2021/01/24 02:43:29;;;;;;;6.90;5.60;;;4.30;99.90;;;;;;5126602;27;20911;-53
2021/01/24 02:45:55;;;;;;;6.70;5.80;;;4.30;99.90;;;;;;5120243;27;20457;-52
2021/01/24 02:48:21;;;;;;;6.77;5.40;;;4.20;99.90;;;;;;5112874;27;20447;-53
2021/01/24 02:50:48;;;;;;;7.60;6.07;;;4.20;99.90;;;;;;5135234;27;20492;-54
2021/01/24 02:53:14;;;;;;;6.97;5.40;;;4.10;99.90;;;;;;5135940;27;20415;-53
2021/01/24 02:55:41;;;;;;;8.33;6.93;;;4.10;99.90;;;;;;5135843;27;20974;-53
2021/01/24 02:58:07;;;;;;;9.57;5.77;;;4.20;99.90;;;;;;5125179;27;20467;-52
2021/01/24 03:00:33;;;;;;;7.93;6.17;;;4.10;99.90;;;;;;5119461;27;20450;-52
2021/01/24 03:02:59;;;;;;;7.83;6.23;;;4.10;99.90;;;;;;5124411;27;20726;-55
2021/01/24 03:05:25;;;;;;;7.73;6.33;;;4.10;99.90;;;;;;5115252;28;20519;-53
2021/01/24 03:07:52;;;;;;;5.90;4.90;;;4.00;99.90;;;;;;5115142;28;20507;-53
2021/01/24 03:10:19;;;;;;;6.40;5.20;;;3.90;99.90;;;;;;5115101;28;20189;-54
2021/01/24 03:12:49;;;;;;;7.03;6.27;;;3.90;99.90;;;;;;5115050;28;20490;-53
2021/01/24 03:15:17;;;;;;;9.43;6.53;;;3.80;99.90;;;;;;5116362;27;20518;-53
2021/01/24 03:17:46;;;;;;;9.60;6.10;;;3.70;99.90;;;;;;5129858;27;20468;-52
2021/01/24 03:20:13;;;;;;;6.93;5.33;;;3.70;99.90;;;;;;5127859;27;20514;-52
2021/01/24 03:22:39;;;;;;;6.87;5.90;;;3.70;99.90;;;;;;5123322;27;20583;-55
2021/01/24 03:25:07;;;;;;;7.70;6.50;;;3.70;99.90;;;;;;5121008;27;20473;-53
2021/01/24 03:27:34;;;;;;;8.37;6.60;;;3.60;99.90;;;;;;5135350;27;20423;-53
2021/01/24 03:30:00;;;;;;;7.67;6.03;;;3.60;99.90;;;;;;5114727;27;20992;-52
2021/01/24 03:32:27;;;;;;;6.77;5.97;;;3.50;99.90;;;;;;5119089;27;20462;-53
2021/01/24 03:34:52;;;;;;;8.90;6.40;;;3.60;99.90;;;;;;5134995;27;20177;-52
2021/01/24 03:37:18;;;;;;;8.57;6.27;;;3.50;99.90;;;;;;5126266;27;20461;-52
2021/01/24 03:39:44;;;;;;;8.30;6.40;;;3.50;99.90;;;;;;5116825;27;20655;-53
2021/01/24 03:42:09;;;;;;;7.40;6.10;;;3.60;99.90;;;;;;5118535;27;20220;-52
2021/01/24 03:44:35;;;;;;;8.53;6.43;;;3.60;99.90;;;;;;5131200;27;20211;-53
2021/01/24 03:47:00;;;;;;;8.87;6.10;;;3.50;99.90;;;;;;5135017;27;20577;-54
2021/01/24 03:49:26;;;;;;;9.43;6.47;;;3.60;99.90;;;;;;5128019;27;20193;-54
2021/01/24 03:51:52;;;;;;;12.67;7.93;;;3.60;99.90;;;;;;5124695;27;20543;-52
2021/01/24 03:54:17;;;;;;;12.07;7.70;;;3.80;99.90;;;;;;5125319;27;20440;-54
2021/01/24 03:56:43;;;;;;;10.33;7.53;;;3.70;99.90;;;;;;5134766;27;20283;-54
2021/01/24 03:59:09;;;;;;;10.30;7.70;;;3.50;99.90;;;;;;5135064;27;20190;-52
2021/01/24 04:01:35;;;;;;;11.47;8.80;;;3.40;99.90;;;;;;5134685;27;20180;-53
2021/01/24 04:04:00;;;;;;;13.13;8.77;;;3.30;99.90;;;;;;5123597;27;20188;-53
2021/01/24 04:06:26;;;;;;;12.90;8.80;;;3.30;99.90;;;;;;5113823;28;20182;-52
2021/01/24 04:08:52;;;;;;;11.37;7.97;;;3.30;99.90;;;;;;5131924;27;20169;-52
2021/01/24 04:11:18;;;;;;;11.07;8.13;;;3.30;99.90;;;;;;5119172;27;20548;-53
2021/01/24 04:13:44;;;;;;;12.17;8.90;;;3.30;99.90;;;;;;5113895;28;20486;-51
2021/01/24 04:16:11;;;;;;;9.63;7.50;;;3.30;99.90;;;;;;5118117;27;20528;-52
2021/01/24 04:18:38;;;;;;;12.50;8.83;;;3.20;99.90;;;;;;5113703;28;20920;-52
2021/01/24 04:21:04;;;;;;;12.33;8.70;;;3.20;99.90;;;;;;5113683;28;20959;-53
2021/01/24 04:23:30;;;;;;;12.20;8.70;;;3.20;99.90;;;;;;5129241;27;20439;-53
2021/01/24 04:25:56;;;;;;;10.13;8.17;;;3.20;99.90;;;;;;5134390;27;20431;-55
2021/01/24 04:28:22;;;;;;;12.20;8.60;;;3.10;99.90;;;;;;5134360;27;20234;-52
2021/01/24 04:30:48;;;;;;;11.37;9.37;;;3.00;99.90;;;;;;5134124;27;20501;-53
2021/01/24 04:33:14;;;;;;;11.83;8.00;;;3.00;99.90;;;;;;5114071;27;20224;-54
2021/01/24 04:35:39;;;;;;;12.00;8.43;;;3.00;99.90;;;;;;5113455;28;20428;-55
2021/01/24 04:38:05;;;;;;;11.03;8.70;;;3.00;99.90;;;;;;5113389;28;20428;-53
2021/01/24 04:40:30;;;;;;;11.67;9.43;;;2.90;99.90;;;;;;5116044;27;20236;-54
2021/01/24 04:42:56;;;;;;;12.70;8.60;;;2.90;99.90;;;;;;5119845;27;20182;-52
2021/01/24 04:45:22;;;;;;;13.60;9.20;;;3.00;99.90;;;;;;5123125;27;20638;-53
2021/01/24 04:47:50;;;;;;;13.00;10.07;;;3.10;99.90;;;;;;5113239;28;20425;-53
2021/01/24 04:50:17;;;;;;;19.87;11.00;;;3.00;99.90;;;;;;5113349;28;20264;-54
2021/01/24 04:52:43;;;;;;;14.40;10.40;;;2.90;99.90;;;;;;5117645;27;20483;-52
2021/01/24 04:55:10;;;;;;;11.30;8.73;;;2.90;99.90;;;;;;5123041;27;20901;-52
2021/01/24 04:57:36;;;;;;;13.70;9.20;;;2.90;99.90;;;;;;5113112;28;20473;-52
2021/01/24 05:00:07;;;;;;;13.13;9.63;;;2.90;99.90;;;;;;5121587;27;20795;-53
2021/01/24 05:02:34;;;;;;;13.60;9.23;;;2.90;99.90;;;;;;5131301;27;20906;-55
2021/01/24 05:05:00;;;;;;;14.33;10.30;;;3.00;99.90;;;;;;5133724;27;20430;-53
2021/01/24 05:07:26;;;;;;;12.03;9.13;;;3.00;99.90;;;;;;5133910;27;20521;-52
2021/01/24 05:09:51;;;;;;;11.70;8.93;;;3.00;99.90;;;;;;5132032;27;20203;-55
2021/01/24 05:12:19;;;;;;;12.27;8.43;;;3.00;99.90;;;;;;5119955;27;20188;-53
2021/01/24 05:14:48;;;;;;;12.57;9.20;;;2.90;99.90;;;;;;5121522;27;20353;-53
2021/01/24 05:17:14;;;;;;;13.20;9.93;;;2.90;99.90;;;;;;5113217;28;20512;-55
2021/01/24 05:19:41;;;;;;;12.40;9.50;;;2.90;99.90;;;;;;5131311;27;20937;-53
2021/01/24 05:22:07;;;;;;;11.53;8.83;;;2.90;99.90;;;;;;5128506;27;20230;-53
2021/01/24 05:24:34;;;;;;;14.57;9.67;;;2.90;99.90;;;;;;5114310;28;20427;-53
2021/01/24 05:27:11;;;;;;;14.10;9.47;;;2.90;99.90;;;;;;5133560;27;20218;-52
2021/01/24 05:29:41;;;;;;;12.23;10.27;;;2.90;99.90;;;;;;5133667;27;20488;-53
2021/01/24 05:32:07;;;;;;;13.20;10.20;;;2.90;99.90;;;;;;5133171;27;20551;-53
2021/01/24 05:34:33;;;;;;;12.97;9.40;;;2.90;99.90;;;;;;5133532;27;20473;-54
2021/01/24 05:37:00;;;;;;;11.20;8.63;;;3.00;99.90;;;;;;5124686;27;20458;-54
2021/01/24 05:39:29;;;;;;;12.23;9.10;;;3.00;99.90;;;;;;5133481;27;20916;-53
2021/01/24 05:41:56;;;;;;;16.53;11.93;;;2.90;99.90;;;;;;5122221;27;20938;-54
2021/01/24 05:44:24;;;;;;;12.73;9.27;;;2.90;99.90;;;;;;5119964;28;20521;-53
2021/01/24 05:46:51;;;;;;;11.60;9.33;;;2.90;99.90;;;;;;5133412;27;20430;-52
2021/01/24 05:49:27;;;;;;;11.83;9.27;;;2.80;99.90;;;;;;5125169;27;20939;-51
2021/01/24 05:52:00;;;;;;;11.80;8.20;;;2.80;99.90;;;;;;5121597;27;20593;-53
2021/01/24 05:54:46;;;;;;;15.80;10.00;;;2.80;99.90;;;;;;5128364;27;20448;-53
2021/01/24 05:57:13;;;;;;;14.10;9.77;;;2.80;99.90;;;;;;5116562;28;20470;-55
2021/01/24 05:59:55;;;;;;;12.33;8.43;;;2.90;99.90;;;;;;5116584;28;20513;-53
2021/01/24 06:02:22;;;;;;;14.90;10.20;;;2.80;99.90;;;;;;5125968;27;20430;-54
2021/01/24 06:04:48;;;;;;;12.20;9.13;;;2.70;99.90;;;;;;5134838;27;20429;-53
2021/01/24 06:07:15;;;;;;;14.33;10.13;;;2.70;99.90;;;;;;5129399;27;20435;-54
2021/01/24 06:09:40;;;;;;;13.73;11.03;;;2.70;99.90;;;;;;5133620;27;20598;-53
2021/01/24 06:12:10;;;;;;;14.73;9.50;;;2.70;99.90;;;;;;5116472;27;20427;-53
2021/01/24 06:14:39;;;;;;;12.90;9.77;;;2.60;99.90;;;;;;5126854;27;20641;-53
2021/01/24 06:17:29;;;;;;;14.00;10.53;;;2.40;99.90;;;;;;5136888;27;20467;-53
2021/01/24 06:20:01;;;;;;;15.63;10.07;;;2.70;99.90;;;;;;5117976;27;20469;-53
2021/01/24 06:22:37;;;;;;;15.50;10.87;;;2.80;99.90;;;;;;5116102;28;20431;-52
2021/01/24 06:25:11;;;;;;;12.73;10.03;;;2.90;99.90;;;;;;5118957;27;20438;-52
2021/01/24 06:27:43;;;;;;;13.00;9.63;;;2.90;99.90;;;;;;5116282;27;20440;-54
2021/01/24 06:30:12;;;;;;;13.97;9.60;;;2.80;99.90;;;;;;5117392;28;20445;-52
2021/01/24 06:32:38;;;;;;;14.07;10.33;;;2.70;99.90;;;;;;5136584;27;20536;-53
2021/01/24 06:35:19;;;;;;;18.00;12.10;;;2.60;99.90;;;;;;5136659;27;20880;-54
2021/01/24 06:37:53;;;;;;;15.50;10.13;;;2.60;99.90;;;;;;5121309;27;20498;-51
2021/01/24 06:40:24;;;;;;;15.03;10.97;;;2.60;99.90;;;;;;5115608;27;20430;-54
2021/01/24 06:43:01;;;;;;;14.27;10.57;;;2.70;99.90;;;;;;5132398;27;20476;-52
2021/01/24 06:45:29;;;;;;;15.40;11.13;;;2.60;99.90;;;;;;5136267;27;20925;-52
2021/01/24 06:47:57;;;;;;;15.00;11.23;;;2.50;99.90;;;;;;5130361;27;20462;-54
2021/01/24 06:50:44;;;;;;;16.27;11.50;;;2.50;99.90;;;;;;5118135;27;20502;-52
2021/01/24 06:53:17;;;;;;;16.47;11.37;;;2.50;99.90;;;;;;5115460;28;20447;-53
2021/01/24 06:56:08;;;;;;;16.17;11.63;;;2.50;99.90;;;;;;5116775;27;20476;-52
2021/01/24 06:58:34;;;;;;;21.00;14.67;;;2.40;99.90;;;;;;5117313;27;20933;-53
2021/01/24 07:01:37;;;;;;;19.37;13.97;;;2.40;99.90;;;;;;5130991;27;20439;-55
2021/01/24 07:04:18;;;;;;;20.07;14.57;;;2.50;99.90;;;;;;5094247;28;20450;-53
2021/01/24 07:06:53;;;;;;;15.93;13.40;;;2.60;99.90;;;;;;5117935;27;20449;-54
2021/01/24 07:09:24;;;;;;;16.80;11.70;;;2.60;99.90;;;;;;5123690;27;20438;-52
2021/01/24 07:12:06;;;;;;;15.87;11.43;;;2.80;99.90;;;;;;5115387;28;21016;-54
2021/01/24 07:14:32;;;;;;;14.40;11.00;;;2.80;99.90;;;;;;5115154;28;20428;-53
2021/01/24 07:17:04;;;;;;;15.70;11.27;;;2.80;99.90;;;;;;5121255;27;20455;-53
2021/01/24 07:19:31;;;;;;;17.80;12.83;;;3.00;99.90;;;;;;5116449;27;20195;-53
2021/01/24 07:21:58;;;;;;;13.90;11.10;;;3.10;99.90;;;;;;5115122;28;20411;-55
2021/01/24 07:24:25;;;;;;;15.67;11.30;;;3.10;99.90;;;;;;5117673;27;20421;-51
2021/01/24 07:26:55;;;;;;;15.70;12.20;;;3.20;99.90;;;;;;5114963;28;20422;-54
2021/01/24 07:29:22;;;;;;;16.10;12.07;;;3.20;99.90;;;;;;5123553;27;20447;-52
2021/01/24 07:31:48;;;;;;;14.20;11.07;;;3.30;99.90;;;;;;5114598;28;20820;-53
2021/01/24 07:34:14;;;;;;;14.90;11.13;;;3.30;99.90;;;;;;5114856;28;20457;-53
2021/01/24 07:36:41;;;;;;;18.07;11.17;;;3.30;99.90;;;;;;5113271;28;20962;-54
2021/01/24 07:39:07;;;;;;;15.23;10.73;;;3.40;99.90;;;;;;5124079;27;20839;-54
2021/01/24 07:41:33;;;;;;;14.30;10.97;;;3.60;99.90;;;;;;5133288;27;20421;-54
2021/01/24 07:43:58;;;;;;;16.07;11.67;;;3.60;99.90;;;;;;5120132;27;20183;-54
2021/01/24 07:46:24;;;;;;;16.73;10.37;;;3.80;99.90;;;;;;5130386;27;20195;-54
2021/01/24 07:48:50;;;;;;;14.30;10.57;;;3.70;99.90;;;;;;5129237;27;20181;-54
2021/01/24 07:51:17;;;;;;;16.67;11.20;;;3.60;99.90;;;;;;5134939;27;20444;-54
2021/01/24 07:53:43;;;;;;;14.40;10.80;;;3.50;99.90;;;;;;5135041;27;20422;-54
2021/01/24 07:56:09;;;;;;;15.03;10.77;;;3.50;99.90;;;;;;5135478;27;20548;-55
2021/01/24 07:58:36;;;;;;;17.00;10.43;;;3.40;99.90;;;;;;5120727;27;20430;-54
2021/01/24 08:01:03;;;;;;;16.53;11.37;;;3.70;99.90;;;;;;5102015;27;20472;-53
2021/01/24 08:03:29;;;;;;;14.03;9.73;;;3.80;99.90;;;;;;5134685;27;20413;-53
2021/01/24 08:06:08;;;;;;;15.20;11.63;;;3.90;99.90;;;;;;5116610;27;20447;-54
2021/01/24 08:08:35;;;;;;;16.60;12.10;;;4.00;99.90;;;;;;5125009;27;20470;-52
2021/01/24 08:11:02;;;;;;;16.10;11.27;;;4.10;99.90;;;;;;5124955;27;20442;-53
2021/01/24 08:13:28;;;;;;;17.63;11.33;;;4.20;99.90;;;;;;5129013;27;20463;-53
2021/01/24 08:15:55;;;;;;;15.77;10.77;;;4.30;99.90;;;;;;5124795;27;20451;-54
2021/01/24 08:18:23;;;;;;;20.30;12.23;;;4.30;99.90;;;;;;5127575;27;20436;-54
2021/01/24 08:20:49;;;;;;;15.20;9.80;;;4.30;99.90;;;;;;5113957;28;20423;-53
2021/01/24 08:23:15;;;;;;;13.33;9.67;;;4.40;99.90;;;;;;5118196;27;20455;-52
2021/01/24 08:25:41;;;;;;;16.43;10.60;;;4.40;99.90;;;;;;5132094;27;20433;-53
2021/01/24 08:28:08;;;;;;;18.67;12.20;;;4.50;99.90;;;;;;5112589;28;20455;-54
2021/01/24 08:30:40;;;;;;;13.73;10.23;;;4.50;99.90;;;;;;5129166;27;20222;-54
2021/01/24 08:33:11;;;;;;;14.33;10.97;;;4.60;99.90;;;;;;5123949;27;20470;-52
2021/01/24 08:35:36;;;;;;;15.70;11.20;;;4.60;99.90;;;;;;5130881;27;20874;-54
2021/01/24 08:38:03;;;;;;;16.10;10.97;;;4.60;99.90;;;;;;5121124;27;20482;-55
2021/01/24 08:40:32;;;;;;;13.93;10.10;;;4.50;99.90;;;;;;5126249;27;20281;-53
2021/01/24 08:42:58;;;;;;;13.10;10.90;;;4.60;99.90;;;;;;5114278;27;20447;-53
2021/01/24 08:45:28;;;;;;;14.70;11.20;;;4.30;99.90;;;;;;5113205;28;20431;-53
2021/01/24 08:47:55;;;;;;;16.43;12.70;;;4.70;99.90;;;;;;5124454;27;20219;-56
2021/01/24 08:50:22;;;;;;;13.30;11.47;;;4.80;99.90;;;;;;5115632;27;20478;-55
2021/01/24 08:52:59;;;;;;;15.83;11.40;;;4.80;99.90;;;;;;5132121;27;20441;-54
2021/01/24 08:55:24;;;;;;;17.30;12.23;;;4.90;99.90;;;;;;5134060;27;20484;-55
2021/01/24 08:57:51;;;;;;;16.50;11.70;;;5.00;99.90;;;;;;5118449;27;20458;-53
2021/01/24 09:00:17;;;;;;;16.63;11.23;;;5.00;99.90;;;;;;5112993;28;20189;-53
2021/01/24 09:02:43;;;;;;;17.37;12.03;;;5.00;99.90;;;;;;5114424;27;20473;-52
2021/01/24 09:05:09;;;;;;;19.30;11.67;;;5.00;99.90;;;;;;5109905;28;20535;-56
2021/01/24 09:07:42;;;;;;;16.47;10.50;;;5.00;99.90;;;;;;5118772;27;20447;-56
2021/01/24 09:10:22;;;;;;;13.30;9.90;;;5.00;99.90;;;;;;5113110;27;20194;-57
2021/01/24 09:12:52;;;;;;;14.23;10.30;;;5.00;99.90;;;;;;5118444;27;20506;-56
2021/01/24 09:15:19;;;;;;;14.70;10.83;;;5.00;99.90;;;;;;5119469;27;20515;-57
2021/01/24 09:17:48;;;;;;;15.77;10.73;;;5.00;99.90;;;;;;5117115;28;20474;-57
2021/01/24 09:20:15;;;;;;;15.80;10.90;;;5.00;99.90;;;;;;5129244;27;20443;-56
2021/01/24 09:22:41;;;;;;;16.70;11.03;;;5.10;99.90;;;;;;5116222;27;20439;-57
2021/01/24 09:25:07;;;;;;;15.30;11.10;;;5.10;99.90;;;;;;5120081;27;20436;-58
2021/01/24 09:27:34;;;;;;;15.00;10.07;;;5.20;99.90;;;;;;5117067;27;20611;-55
2021/01/24 09:30:00;;;;;;;18.90;11.60;;;5.20;99.90;;;;;;5124226;27;20834;-56
2021/01/24 09:32:25;;;;;;;15.23;9.77;;;5.20;99.90;;;;;;5123143;28;20474;-55
2021/01/24 09:34:51;;;;;;;15.73;10.60;;;5.30;99.90;;;;;;5126121;28;20460;-55
2021/01/24 09:37:16;;;;;;;13.33;9.80;;;5.30;99.90;;;;;;5121008;28;20283;-55
2021/01/24 09:39:42;;;;;;;17.70;11.90;;;5.30;99.90;;;;;;5116200;28;20185;-57
2021/01/24 09:42:08;;;;;;;14.63;10.83;;;5.30;99.90;;;;;;5112792;28;20284;-57
2021/01/24 09:44:34;;;;;;;13.90;11.20;;;5.20;99.90;;;;;;5128318;28;20263;-55
2021/01/24 09:47:00;;;;;;;16.93;11.67;;;5.30;99.90;;;;;;5109429;28;21024;-54
2021/01/24 09:49:26;;;;;;;14.50;11.47;;;5.40;99.90;;;;;;5119044;28;20215;-55
2021/01/24 09:51:51;;;;;;;17.60;11.43;;;6.90;99.90;;;;;;5123389;28;20461;-54
2021/01/24 09:54:17;;;;;;;14.67;11.23;;;5.50;99.90;;;;;;5112925;28;20221;-57
2021/01/24 09:56:44;;;;;;;14.37;10.70;;;5.50;99.90;;;;;;5110862;28;20260;-56
2021/01/24 09:59:11;;;;;;;16.03;10.67;;;5.60;99.90;;;;;;5116684;28;20216;-57
2021/01/24 10:01:37;;;;;;;15.73;10.70;;;5.70;99.90;;;;;;5119163;28;20513;-56
2021/01/24 10:04:03;;;;;;;16.50;12.17;;;5.80;99.90;;;;;;5127040;28;20507;-55
2021/01/24 10:06:29;;;;;;;14.20;11.40;;;5.80;99.90;;;;;;5122477;28;20434;-58
2021/01/24 10:08:54;;;;;;;17.40;12.60;;;5.70;99.90;;;;;;5125724;28;20174;-57
2021/01/24 10:11:21;;;;;;;16.57;12.20;;;5.70;99.90;;;;;;5113637;28;20189;-56
2021/01/24 10:13:47;;;;;;;16.07;11.00;;;5.70;99.90;;;;;;5118851;28;20184;-56
2021/01/24 10:16:13;;;;;;;15.47;11.10;;;5.90;99.90;;;;;;5116961;28;20462;-57
2021/01/24 10:18:40;;;;;;;16.57;11.80;;;6.00;99.90;;;;;;5128695;28;20431;-57
2021/01/24 10:21:06;;;;;;;18.37;11.93;;;6.00;99.90;;;;;;5117300;27;20217;-56
2021/01/24 10:23:32;;;;;;;17.07;11.27;;;6.10;99.90;;;;;;5116176;27;20792;-55
2021/01/24 10:25:58;;;;;;;19.53;13.00;;;6.10;99.90;;;;;;5125845;27;20526;-56
2021/01/24 10:28:24;;;;;;;20.10;15.20;;;6.10;99.90;;;;;;5110665;28;20936;-57
2021/01/24 10:30:51;;;;;;;20.70;13.30;;;6.10;99.90;;;;;;5121914;28;20265;-56
2021/01/24 10:33:17;;;;;;;19.23;11.73;;;6.10;99.90;;;;;;5116163;28;20460;-58
2021/01/24 10:35:43;;;;;;;16.43;12.27;;;6.10;99.00;;;;;;5119874;28;20446;-58
2021/01/24 10:38:09;;;;;;;17.97;13.20;;;6.10;99.90;;;;;;5131723;27;20260;-57
2021/01/24 10:40:35;;;;;;;21.27;14.70;;;6.10;99.40;;;;;;5126405;27;20920;-56
2021/01/24 10:43:02;;;;;;;16.30;11.47;;;6.00;99.90;;;;;;5118546;27;20957;-56
2021/01/24 10:45:30;;;;;;;17.90;12.07;;;6.00;99.90;;;;;;5114307;27;20913;-56
2021/01/24 10:47:56;;;;;;;17.27;12.17;;;6.10;99.90;;;;;;5117659;27;20455;-56
2021/01/24 10:50:21;;;;;;;15.40;11.47;;;5.90;99.90;;;;;;5125506;27;20442;-56
2021/01/24 10:52:47;;;;;;;20.57;13.90;;;5.90;99.90;;;;;;5123209;27;20303;-55
2021/01/24 10:55:13;;;;;;;17.53;13.37;;;5.90;99.90;;;;;;5123665;27;20246;-57
2021/01/24 10:57:38;;;;;;;15.77;10.90;;;5.70;99.90;;;;;;5118950;27;20210;-57
2021/01/24 11:00:06;;;;;;;15.30;11.00;;;5.70;99.90;;;;;;5120708;27;20204;-56
2021/01/24 11:02:32;;;;;;;15.87;11.40;;;5.80;99.90;;;;;;5121317;27;20219;-55
2021/01/24 11:04:57;;;;;;;14.07;10.80;;;5.70;99.90;;;;;;5127607;27;20692;-55
2021/01/24 11:07:23;;;;;;;16.60;12.00;;;5.70;99.90;;;;;;5115683;27;20202;-54
2021/01/24 11:09:49;;;;;;;16.47;12.30;;;5.70;99.90;;;;;;5123136;27;20210;-55
2021/01/24 11:12:15;;;;;;;18.20;11.83;;;5.70;99.90;;;;;;5116337;27;20181;-56
2021/01/24 11:14:42;;;;;;;14.90;11.20;;;5.70;99.90;;;;;;5119821;27;20658;-56
2021/01/24 11:17:08;;;;;;;16.03;11.40;;;5.70;99.90;;;;;;5123818;27;20206;-55
2021/01/24 11:19:36;;;;;;;17.70;11.73;;;5.50;99.90;;;;;;5123730;27;20586;-56
2021/01/24 11:22:01;;;;;;;14.57;11.40;;;5.50;99.90;;;;;;5118483;27;20436;-56
2021/01/24 11:24:27;;;;;;;17.37;11.97;;;5.50;99.90;;;;;;5122392;27;20565;-58
2021/01/24 11:26:53;;;;;;;15.77;12.00;;;5.40;99.90;;;;;;5130184;27;20665;-56
2021/01/24 11:29:19;;;;;;;19.87;12.37;;;5.40;99.90;;;;;;5130065;27;20174;-57
2021/01/24 11:31:45;;;;;;;18.90;12.03;;;5.40;99.90;;;;;;5121563;27;20214;-56
2021/01/24 11:34:11;;;;;;;13.77;10.63;;;5.30;99.90;;;;;;5119178;27;20190;-55
2021/01/24 11:36:36;;;;;;;14.47;10.77;;;5.30;99.90;;;;;;5125541;27;20552;-56
2021/01/24 11:39:03;;;;;;;12.80;9.23;;;5.30;99.90;;;;;;5120766;27;20546;-55
2021/01/24 11:41:29;;;;;;;13.70;10.10;;;5.30;99.90;;;;;;5117742;27;20231;-57
2021/01/24 11:43:55;;;;;;;16.20;11.73;;;5.30;99.90;;;;;;5123375;27;20443;-56
2021/01/24 11:46:21;;;;;;;15.37;11.17;;;5.40;99.90;;;;;;5126077;27;20184;-55
2021/01/24 11:48:47;;;;;;;16.73;11.70;;;5.40;99.90;;;;;;5123272;27;20259;-55
2021/01/24 11:51:12;;;;;;;17.03;10.40;;;5.50;99.90;;;;;;5117299;27;20436;-57
2021/01/24 11:53:38;;;;;;;14.57;9.70;;;5.50;99.90;;;;;;5127479;27;20531;-56
2021/01/24 11:56:05;;;;;;;12.33;9.20;;;5.50;99.90;;;;;;5113855;27;20280;-55
2021/01/24 11:58:31;;;;;;;11.63;9.07;;;5.60;99.90;;;;;;5123997;27;20185;-56
2021/01/24 12:00:56;;;;;;;12.30;8.80;;;5.60;99.90;;;;;;5120879;27;20431;-57
2021/01/24 12:03:22;;;;;;;13.10;8.50;;;5.60;99.90;;;;;;5124659;27;20185;-55
2021/01/24 12:05:48;;;;;;;13.07;10.10;;;5.50;99.90;;;;;;5120871;27;20201;-54
2021/01/24 12:08:14;;;;;;;14.53;11.13;;;5.50;99.90;;;;;;5119851;27;20213;-56
2021/01/24 12:10:39;;;;;;;16.30;9.73;;;5.70;99.90;;;;;;5117735;27;20181;-55
2021/01/24 12:13:05;;;;;;;11.30;9.10;;;5.60;99.90;;;;;;5125750;27;20512;-57
2021/01/24 12:15:31;;;;;;;14.87;10.00;;;5.60;99.90;;;;;;5119967;27;20200;-57
2021/01/24 12:17:56;;;;;;;12.40;8.80;;;5.50;99.90;;;;;;5123959;27;20209;-57
2021/01/24 12:20:22;;;;;;;9.40;7.83;;;5.50;99.90;;;;;;5133477;27;20178;-55
2021/01/24 12:22:48;;;;;;;13.07;9.07;;;5.50;99.90;;;;;;5122634;27;20277;-56
2021/01/24 12:25:13;;;;;;;12.67;9.63;;;5.50;99.90;;;;;;5123095;27;20657;-56
2021/01/24 12:27:39;;;;;;;12.47;9.00;;;5.50;99.90;;;;;;5111445;28;20186;-56
2021/01/24 12:30:05;;;;;;;11.73;7.83;;;5.40;99.90;;;;;;5123823;27;20190;-57
2021/01/24 12:32:31;;;;;;;11.77;7.70;;;5.50;99.90;;;;;;5112211;28;20218;-53
2021/01/24 12:34:57;;;;;;;11.20;8.20;;;5.40;99.90;;;;;;5116598;27;20454;-56
2021/01/24 12:37:23;;;;;;;11.07;8.00;;;5.40;99.90;;;;;;5120163;27;20315;-55
2021/01/24 12:39:48;;;;;;;14.97;10.43;;;5.60;99.90;;;;;;5126885;27;20439;-54
2021/01/24 12:42:14;;;;;;;11.20;8.57;;;5.40;99.90;;;;;;5129781;27;20178;-56
2021/01/24 12:44:39;;;;;;;12.57;9.13;;;5.40;99.90;;;;;;5129467;27;20182;-54
2021/01/24 12:47:09;;;;;;;11.00;8.63;;;5.50;99.90;;;;;;5115225;27;20602;-54